Time;durP1;ratioP1;P1;durP2;ratioP2;P2;SDS_P1;SDS_P2;PMS_P1;PMS_P2;Temp;Humidity;BMP_temperature;BMP_pressure;BME280_temperature;BME280_humidity;BME280_pressure;Samples;Min_cycle;Max_cycle;Signal;HPM_P1;HPM_P2
2022/02/03 00:00:40;;;;;;;31.55;18.38;;;;;;;8.12;91.92;98798.50;4208830;28;20303;-83
2022/02/03 00:02:53;;;;;;;28.50;18.02;;;;;;;8.08;91.80;98802.09;4207019;28;20735;-84
2022/02/03 00:05:03;;;;;;;24.67;16.80;;;;;;;8.07;93.24;98793.47;4207619;28;20263;-84
2022/02/03 00:07:11;;;;;;;23.98;17.00;;;;;;;8.07;91.46;98797.81;4208685;28;20201;-83
2022/02/03 00:09:44;;;;;;;22.58;15.77;;;;;;;8.08;92.88;98791.72;4192950;28;20213;-84
2022/02/03 00:16:13;;;;;;;21.38;15.13;;;;;;;8.07;92.77;98801.28;4207302;28;20661;-83
2022/02/03 00:26:07;;;;;;;26.73;13.25;;;;;;;8.07;92.25;98803.00;4206468;28;20212;-82
2022/02/03 00:28:15;;;;;;;17.23;12.15;;;;;;;8.05;92.36;98799.66;4189316;28;20202;-83
2022/02/03 00:30:21;;;;;;;15.35;11.10;;;;;;;8.06;94.02;98804.78;4191345;28;20753;-83
2022/02/03 00:32:46;;;;;;;19.95;12.38;;;;;;;8.07;93.36;98806.47;4207287;28;20205;-83
2022/02/03 00:35:07;;;;;;;17.17;12.82;;;;;;;8.09;93.01;98798.59;4209469;28;20189;-83
2022/02/03 00:37:17;;;;;;;17.92;13.45;;;;;;;8.10;93.61;98801.13;4207528;28;20213;-83
2022/02/03 00:48:57;;;;;;;18.88;13.75;;;;;;;8.02;93.43;98790.25;4205051;28;20201;-82
2022/02/03 00:51:01;;;;;;;17.92;13.38;;;;;;;8.00;92.40;98793.84;4189136;28;20503;-82
2022/02/03 00:53:07;;;;;;;17.88;12.93;;;;;;;7.99;92.92;98785.19;4208312;28;20303;-83
2022/02/03 00:55:11;;;;;;;18.20;13.43;;;;;;;7.99;94.09;98790.38;4209783;28;20254;-83
2022/02/03 00:57:28;;;;;;;19.70;13.07;;;;;;;7.99;94.61;98786.97;4191877;28;20202;-83
2022/02/03 00:59:37;;;;;;;19.77;13.27;;;;;;;8.01;94.88;98787.72;4190723;28;20264;-83
2022/02/03 01:01:46;;;;;;;20.40;13.35;;;;;;;8.03;94.89;98791.09;4190135;28;20218;-83
2022/02/03 01:03:51;;;;;;;17.33;12.82;;;;;;;8.03;93.47;98788.50;4190738;28;20658;-83
2022/02/03 01:06:02;;;;;;;19.05;14.07;;;;;;;8.05;94.70;98784.06;4190209;28;20209;-83
2022/02/03 01:08:16;;;;;;;17.58;13.23;;;;;;;8.06;93.64;98793.56;4190957;28;20198;-84
2022/02/03 01:10:25;;;;;;;23.10;15.63;;;;;;;8.04;94.45;98780.63;4180618;28;20206;-83
2022/02/03 01:12:37;;;;;;;20.90;14.10;;;;;;;8.05;94.78;98786.66;4186630;28;20213;-82
2022/02/03 01:14:48;;;;;;;21.60;15.45;;;;;;;8.03;94.77;98783.31;4191301;28;20205;-83
2022/02/03 01:17:14;;;;;;;22.50;15.13;;;;;;;8.00;94.08;98788.66;4205033;28;20219;-83
2022/02/03 01:19:39;;;;;;;25.98;17.92;;;;;;;7.93;94.25;98782.03;4198372;28;20208;-82
2022/02/03 01:33:52;;;;;;;25.77;15.73;;;;;;;7.96;94.47;98782.72;4208340;28;20304;-83
2022/02/03 01:43:24;;;;;;;21.13;14.25;;;;;;;8.08;96.11;98771.78;4202432;28;20208;-82
2022/02/03 01:45:48;;;;;;;22.40;15.63;;;;;;;8.06;95.40;98773.59;4187140;28;20207;-83
2022/02/03 01:48:06;;;;;;;24.45;16.15;;;;;;;8.07;96.72;98770.09;4205372;28;20291;-83
2022/02/03 01:52:33;;;;;;;21.52;14.65;;;;;;;8.04;96.82;98766.78;4203597;28;20213;-82
2022/02/03 01:54:38;;;;;;;25.95;14.77;;;;;;;8.06;95.82;98773.59;4205338;28;20213;-83
2022/02/03 01:56:43;;;;;;;20.98;14.85;;;;;;;8.06;96.15;98765.00;4206586;28;20207;-83
2022/02/03 01:58:51;;;;;;;20.10;14.25;;;;;;;8.09;95.95;98760.47;4189123;28;20645;-82
2022/02/03 02:00:59;;;;;;;23.58;15.38;;;;;;;8.10;95.78;98748.31;4188324;28;20208;-82
2022/02/03 02:03:21;;;;;;;27.92;16.55;;;;;;;8.10;96.33;98748.31;4191639;28;20197;-82
2022/02/03 02:05:34;;;;;;;24.38;16.20;;;;;;;8.10;96.53;98737.94;4198118;28;20197;-83
2022/02/03 02:07:53;;;;;;;24.10;14.80;;;;;;;8.10;95.37;98744.00;4187712;28;20717;-83
2022/02/03 02:10:15;;;;;;;23.33;15.25;;;;;;;8.09;95.52;98744.88;4189570;28;20705;-83
2022/02/03 02:12:48;;;;;;;26.00;16.35;;;;;;;8.08;94.75;98751.00;4188660;28;20202;-82
2022/02/03 02:15:21;;;;;;;22.48;15.10;;;;;;;8.06;95.89;98747.63;4179788;28;20198;-82
2022/02/03 02:17:59;;;;;;;21.73;14.98;;;;;;;8.04;96.22;98738.22;4207121;28;20705;-82
2022/02/03 02:36:52;;;;;;;22.88;15.05;;;;;;;8.04;96.23;98738.22;4200820;28;20194;-82
2022/02/03 02:37:38;;;;;;;21.10;13.63;;;;;;;7.96;95.12;98721.34;4159486;28;20206;-83
2022/02/03 02:40:00;;;;;;;20.83;14.25;;;;;;;7.97;96.20;98722.09;4205362;28;20197;-83
2022/02/03 02:42:32;;;;;;;22.05;14.10;;;;;;;7.99;96.13;98720.25;4190897;28;20284;-82
2022/02/03 02:44:45;;;;;;;16.65;12.25;;;;;;;7.99;95.37;98717.66;4190511;28;20296;-82
2022/02/03 02:46:51;;;;;;;17.77;12.68;;;;;;;8.03;97.35;98720.97;4207953;28;20220;-82
2022/02/03 02:49:13;;;;;;;19.10;13.93;;;;;;;8.08;95.93;98714.63;4194949;28;20205;-82
2022/02/03 02:51:26;;;;;;;15.73;12.20;;;;;;;8.10;96.98;98706.75;4201328;28;20208;-82
2022/02/03 02:53:39;;;;;;;15.40;11.60;;;;;;;8.13;97.33;98712.69;4188345;28;20637;-82
2022/02/03 02:55:57;;;;;;;20.67;14.55;;;;;;;8.13;97.27;98711.84;4208646;28;20625;-83
2022/02/03 02:58:33;;;;;;;21.75;14.23;;;;;;;8.12;97.36;98721.41;4205046;28;20221;-82
2022/02/03 03:29:25;;;;;;;18.75;12.80;;;;;;;8.35;96.24;98692.53;4200982;28;20245;-82
2022/02/03 03:31:47;;;;;;;19.90;13.83;;;;;;;8.37;97.05;98701.06;4207627;28;20296;-83
2022/02/03 03:33:57;;;;;;;16.65;12.55;;;;;;;8.40;96.67;98694.91;4184488;28;20639;-82
2022/02/03 03:36:04;;;;;;;17.63;12.85;;;;;;;8.41;96.54;98699.19;4192338;28;20262;-82
2022/02/03 03:38:10;;;;;;;17.80;12.93;;;;;;;8.42;96.05;98680.91;4193745;28;20201;-82
2022/02/03 03:40:15;;;;;;;14.10;10.82;;;;;;;8.40;97.15;98685.34;4194015;28;20891;-82
2022/02/03 03:42:22;;;;;;;17.63;12.07;;;;;;;8.43;97.67;98690.38;4193456;28;20225;-82
2022/02/03 03:44:28;;;;;;;17.65;13.43;;;;;;;8.40;96.59;98680.13;4193512;28;20201;-82
2022/02/03 03:46:35;;;;;;;17.95;14.00;;;;;;;8.40;97.34;98681.91;4189701;28;20275;-83
2022/02/03 03:48:41;;;;;;;15.68;12.02;;;;;;;8.40;96.90;98677.53;4190822;28;20206;-83
2022/02/03 03:50:49;;;;;;;14.32;11.27;;;;;;;8.44;96.85;98675.66;4204237;28;20213;-82
2022/02/03 03:52:58;;;;;;;18.95;13.48;;;;;;;8.42;96.11;98678.31;4207159;28;20212;-82
2022/02/03 03:55:11;;;;;;;17.58;13.07;;;;;;;8.39;96.96;98675.00;4194913;28;20209;-82
2022/02/03 03:57:37;;;;;;;21.60;14.27;;;;;;;8.39;97.25;98675.00;4208665;28;20231;-82
2022/02/03 04:34:48;;;;;;;15.70;11.55;;;;;;;8.47;96.19;98663.31;4199347;28;20213;-83
2022/02/03 04:39:46;;;;;;;15.85;12.02;;;;;;;8.48;96.47;98658.06;4206859;28;20235;-82
2022/02/03 04:55:19;;;;;;;16.02;12.20;;;;;;;8.53;97.60;98644.81;4207970;28;20656;-82
2022/02/03 05:00:29;;;;;;;16.03;12.23;;;;;;;8.58;96.91;98645.41;4187461;28;20202;-83
2022/02/03 05:02:48;;;;;;;15.40;11.23;;;;;;;8.61;96.74;98638.28;4204230;28;20635;-82
2022/02/03 05:05:12;;;;;;;16.27;10.85;;;;;;;8.67;98.00;98637.13;4205794;28;20266;-82
2022/02/03 05:07:43;;;;;;;16.17;12.25;;;;;;;8.67;96.53;98632.75;4193720;28;20294;-83
2022/02/03 05:10:05;;;;;;;17.83;12.60;;;;;;;8.67;97.04;98637.97;4190713;28;20263;-83
2022/02/03 05:12:25;;;;;;;18.70;13.95;;;;;;;8.67;97.06;98637.97;4204499;28;20622;-83
2022/02/03 05:17:34;;;;;;;22.40;17.93;;;;;;;8.65;95.99;98628.59;4192244;28;20627;-82
2022/02/03 05:25:32;;;;;;;21.57;15.20;;;;;;;8.60;95.73;98627.97;4197582;27;20732;-82
2022/02/03 05:43:19;;;;;;;30.87;20.20;;;;;;;8.51;96.08;98600.72;4188688;28;20607;-83
2022/02/03 05:45:54;;;;;;;25.67;17.95;;;;;;;8.53;95.54;98598.03;4185888;28;20644;-82
2022/02/03 05:50:33;;;;;;;21.67;16.63;;;;;;;8.53;95.77;98580.66;4161336;28;21169;-85
2022/02/03 05:52:56;;;;;;;25.75;19.63;;;;;;;8.54;95.90;98584.13;4170050;28;20337;-84
2022/02/03 06:05:00;;;;;;;16.00;12.70;;;;;;;8.57;96.88;98583.97;4165251;28;20222;-83
2022/02/03 06:09:37;;;;;;;14.95;11.10;;;;;;;8.61;96.52;98582.88;4123302;28;20259;-83
2022/02/03 06:12:14;;;;;;;18.40;12.30;;;;;;;8.63;96.92;98586.22;4187534;28;20208;-84
2022/02/03 06:14:24;;;;;;;15.20;11.50;;;;;;;8.64;97.31;98582.69;4188336;28;20217;-83
2022/02/03 06:16:41;;;;;;;15.57;11.73;;;;;;;8.66;97.68;98586.06;4201474;28;20212;-83
2022/02/03 06:23:27;;;;;;;13.15;10.75;;;;;;;8.67;97.26;98580.78;4176131;28;20260;-82
2022/02/03 06:27:51;;;;;;;18.80;12.82;;;;;;;8.63;97.24;98581.00;4183265;28;20209;-83
2022/02/03 06:29:56;;;;;;;22.95;16.50;;;;;;;8.61;97.18;98575.06;4170865;28;20692;-83
2022/02/03 06:32:01;;;;;;;22.50;16.38;;;;;;;8.59;96.32;98579.53;4187901;28;20206;-83
2022/02/03 06:34:05;;;;;;;25.58;17.55;;;;;;;8.57;96.14;98571.78;4187251;28;20221;-83
2022/02/03 06:36:08;;;;;;;22.80;16.98;;;;;;;8.55;96.60;98570.19;4163748;28;20955;-84
2022/02/03 06:38:11;;;;;;;19.20;16.73;;;;;;;8.54;95.62;98571.13;4162384;28;20694;-83
2022/02/03 06:40:14;;;;;;;20.73;16.45;;;;;;;8.53;95.56;98577.25;4173487;28;20203;-83
2022/02/03 06:42:17;;;;;;;22.33;17.85;;;;;;;8.53;94.71;98572.03;4167003;28;20209;-83
2022/02/03 06:44:24;;;;;;;23.02;16.65;;;;;;;8.54;95.09;98576.31;4179741;28;20234;-83
2022/02/03 06:46:30;;;;;;;20.95;15.75;;;;;;;8.55;95.38;98575.38;4184981;28;20203;-84
2022/02/03 06:48:35;;;;;;;19.65;14.45;;;;;;;8.56;96.11;98579.69;4182320;28;20214;-85
2022/02/03 06:50:42;;;;;;;21.08;14.80;;;;;;;8.56;94.73;98579.69;4189499;28;20633;-82
2022/02/03 06:52:51;;;;;;;20.48;15.32;;;;;;;8.55;95.60;98573.66;4157751;28;20206;-84
2022/02/03 06:55:09;;;;;;;19.98;14.70;;;;;;;8.56;95.70;98566.69;4172046;28;20206;-84
2022/02/03 06:57:17;;;;;;;20.33;14.95;;;;;;;8.55;96.02;98567.59;4174596;28;20711;-84
2022/02/03 06:59:26;;;;;;;20.15;13.30;;;;;;;8.53;95.12;98566.84;4185888;28;20721;-83
2022/02/03 07:01:36;;;;;;;15.15;11.73;;;;;;;8.54;94.93;98576.31;4173015;28;20217;-84
2022/02/03 07:03:43;;;;;;;15.85;12.40;;;;;;;8.56;95.14;98577.91;4174398;28;20264;-84
2022/02/03 07:05:46;;;;;;;17.85;12.80;;;;;;;8.57;96.36;98573.56;4182311;28;20221;-83
2022/02/03 07:07:49;;;;;;;39.38;34.42;;;;;;;8.57;96.17;98578.78;4172974;28;20216;-83
2022/02/03 07:09:53;;;;;;;52.95;40.72;;;;;;;8.59;95.95;98572.53;4175715;28;20608;-83
2022/02/03 07:11:56;;;;;;;93.43;70.57;;;;;;;8.61;96.05;98575.06;4176284;28;20293;-83
2022/02/03 07:13:59;;;;;;;41.58;32.47;;;;;;;8.66;95.89;98586.06;4173977;28;20237;-81
2022/02/03 07:16:02;;;;;;;25.35;22.60;;;;;;;8.65;96.73;98581.78;4162017;28;20228;-84
2022/02/03 07:18:07;;;;;;;19.13;15.27;;;;;;;8.66;95.67;98591.25;4170074;28;20547;-85
2022/02/03 07:20:13;;;;;;;17.42;13.60;;;;;;;8.68;97.08;98592.88;4156115;28;20295;-84
2022/02/03 07:22:16;;;;;;;15.30;12.30;;;;;;;8.71;96.59;98591.88;4162488;28;20658;-87
2022/02/03 07:24:22;;;;;;;18.47;13.07;;;;;;;8.71;95.92;98587.50;4179502;28;20326;-87
2022/02/03 07:26:25;;;;;;;19.42;15.10;;;;;;;8.72;96.68;98588.31;4171452;28;20714;-87
2022/02/03 07:28:28;;;;;;;23.93;15.87;;;;;;;8.70;96.57;98579.78;4181095;28;20692;-83
2022/02/03 07:30:32;;;;;;;20.20;15.10;;;;;;;8.67;95.82;98579.94;4177064;28;21196;-85
2022/02/03 07:32:35;;;;;;;19.40;15.93;;;;;;;8.65;95.63;98574.81;4191586;28;20642;-85
2022/02/03 07:34:41;;;;;;;19.95;15.60;;;;;;;8.65;95.06;98569.63;4173432;28;20627;-86
2022/02/03 07:36:46;;;;;;;20.83;15.33;;;;;;;8.67;95.09;98567.78;4158620;28;20256;-86
2022/02/03 07:38:49;;;;;;;21.40;15.55;;;;;;;8.70;96.06;98574.59;4169669;28;20642;-86
2022/02/03 07:40:53;;;;;;;19.33;15.70;;;;;;;8.72;95.04;98564.94;4177039;28;20203;-85
2022/02/03 07:42:56;;;;;;;19.80;14.73;;;;;;;8.72;95.27;98565.78;4178114;28;20251;-85
2022/02/03 07:44:59;;;;;;;19.13;13.70;;;;;;;8.74;95.54;98560.50;4179204;28;20231;-86
2022/02/03 07:47:03;;;;;;;17.77;13.25;;;;;;;8.76;95.34;98558.66;4173047;28;20217;-86
2022/02/03 07:49:06;;;;;;;14.95;12.00;;;;;;;8.77;96.13;98542.16;4170539;28;20205;-86
2022/02/03 07:51:13;;;;;;;15.20;12.10;;;;;;;8.80;96.01;98542.81;4173536;28;20211;-87
2022/02/03 07:53:18;;;;;;;18.40;14.20;;;;;;;8.84;95.93;98546.06;4175964;28;20647;-87
2022/02/03 07:55:22;;;;;;;25.17;16.83;;;;;;;8.87;95.60;98543.31;4174430;28;20627;-87
2022/02/03 07:57:26;;;;;;;32.55;21.67;;;;;;;8.88;95.54;98532.81;4153836;28;20206;-86
2022/02/03 07:59:29;;;;;;;21.43;15.93;;;;;;;8.88;95.56;98525.00;4159581;28;20219;-83
2022/02/03 08:01:33;;;;;;;22.35;15.63;;;;;;;8.91;96.50;98526.63;4164936;28;20736;-84
2022/02/03 08:03:40;;;;;;;23.40;15.90;;;;;;;8.91;96.51;98527.44;4160025;28;20195;-83
2022/02/03 08:05:54;;;;;;;29.45;20.77;;;;;;;8.92;95.46;98523.94;4176317;28;20583;-83
2022/02/03 08:08:06;;;;;;;29.70;23.20;;;;;;;8.91;95.53;98517.03;4190657;28;20206;-84
2022/02/03 08:10:27;;;;;;;29.30;22.27;;;;;;;8.95;96.57;98516.78;4174547;28;20198;-84
2022/02/03 08:12:33;;;;;;;24.38;18.55;;;;;;;9.00;96.48;98517.38;4177251;28;20216;-84
2022/02/03 08:14:40;;;;;;;20.15;16.20;;;;;;;9.04;96.06;98513.69;4175438;28;20206;-84
2022/02/03 08:16:49;;;;;;;18.80;14.30;;;;;;;9.09;96.22;98510.84;4163318;28;20558;-83
2022/02/03 08:18:58;;;;;;;18.67;14.80;;;;;;;9.14;96.64;98501.00;4178989;28;21213;-83
2022/02/03 08:21:05;;;;;;;20.03;15.60;;;;;;;9.17;96.63;98493.03;4172095;28;21296;-84
2022/02/03 08:23:26;;;;;;;22.80;16.63;;;;;;;9.20;96.55;98493.72;4174906;28;20660;-84
2022/02/03 08:25:29;;;;;;;20.05;13.95;;;;;;;9.25;96.47;98504.69;4160813;28;20665;-83
2022/02/03 08:27:53;;;;;;;17.25;12.52;;;;;;;9.30;96.95;98507.84;4176586;28;20213;-84
2022/02/03 08:30:18;;;;;;;20.08;16.75;;;;;;;9.28;96.25;98499.31;4185240;28;20230;-84
2022/02/03 08:32:22;;;;;;;20.25;16.95;;;;;;;9.34;95.87;98517.19;4177848;28;20639;-84
2022/02/03 08:34:34;;;;;;;16.07;13.73;;;;;;;9.39;96.41;98521.19;4180108;28;20214;-84
2022/02/03 08:36:38;;;;;;;23.43;16.33;;;;;;;9.39;96.67;98523.78;4154211;28;21243;-84
2022/02/03 08:38:47;;;;;;;20.02;15.93;;;;;;;9.43;96.74;98517.50;4159553;28;20629;-83
2022/02/03 08:41:02;;;;;;;19.67;16.00;;;;;;;9.47;96.80;98520.75;4152320;28;20306;-83
2022/02/03 08:43:05;;;;;;;22.90;16.98;;;;;;;9.50;96.73;98516.22;4152594;28;21313;-84
2022/02/03 08:45:09;;;;;;;21.90;17.63;;;;;;;9.52;97.17;98516.13;4164059;28;20206;-84
2022/02/03 08:47:12;;;;;;;27.60;19.75;;;;;;;9.55;96.84;98508.16;4160381;28;20207;-84
2022/02/03 08:49:16;;;;;;;35.93;27.83;;;;;;;9.58;96.75;98506.19;4177050;28;20219;-84
2022/02/03 08:51:22;;;;;;;27.53;22.03;;;;;;;9.64;97.15;98507.63;4184851;28;21020;-83
2022/02/03 08:53:29;;;;;;;29.80;23.70;;;;;;;9.64;96.39;98510.22;4178025;28;21235;-83
2022/02/03 08:55:42;;;;;;;27.80;22.37;;;;;;;9.63;96.74;98516.34;4174107;28;20601;-81
2022/02/03 08:58:04;;;;;;;26.30;20.67;;;;;;;9.63;96.32;98516.34;4163099;28;20667;-83
2022/02/03 09:00:51;;;;;;;28.70;20.33;;;;;;;9.68;96.24;98507.34;4189382;28;20637;-84
2022/02/03 09:36:41;;;;;;;9.93;7.10;;;;;;;10.07;94.76;98463.31;4165519;28;20646;-84
2022/02/03 09:39:03;;;;;;;8.47;7.20;;;;;;;10.12;94.49;98459.53;4160351;28;20643;-84
2022/02/03 09:50:52;;;;;;;9.17;7.40;;;;;;;10.43;93.43;98448.88;4149184;28;20639;-83
2022/02/03 09:53:14;;;;;;;7.73;6.93;;;;;;;10.50;92.86;98447.56;4169930;28;20641;-84
2022/02/03 09:55:41;;;;;;;8.13;7.17;;;;;;;10.53;92.93;98448.22;4159763;28;20762;-84
2022/02/03 09:57:52;;;;;;;8.87;6.77;;;;;;;10.60;93.49;98438.22;4189819;28;20639;-84
2022/02/03 09:59:59;;;;;;;10.07;7.03;;;;;;;10.61;92.66;98432.91;4182127;28;20634;-84
2022/02/03 10:02:10;;;;;;;7.87;6.30;;;;;;;10.68;92.32;98434.22;4175821;28;21313;-83
2022/02/03 10:04:18;;;;;;;8.27;6.57;;;;;;;10.76;92.73;98433.72;4167463;28;20639;-84
2022/02/03 10:06:24;;;;;;;7.27;6.40;;;;;;;10.88;91.37;98412.91;4188875;28;21252;-83
2022/02/03 10:08:28;;;;;;;6.70;6.00;;;;;;;11.00;92.71;98410.34;4159214;28;20649;-84
2022/02/03 10:10:32;;;;;;;6.10;5.50;;;;;;;11.14;91.46;98407.69;4173690;28;21053;-83
2022/02/03 10:12:36;;;;;;;7.00;6.27;;;;;;;11.27;90.79;98406.78;4163228;28;20625;-83
2022/02/03 10:14:43;;;;;;;7.43;5.97;;;;;;;11.36;91.67;98405.31;4161277;28;20634;-83
2022/02/03 10:16:46;;;;;;;6.50;5.67;;;;;;;11.32;90.96;98415.13;4183213;28;20648;-83
2022/02/03 10:19:02;;;;;;;6.50;5.13;;;;;;;11.31;90.73;98425.69;4173145;28;20639;-82
2022/02/03 10:21:10;;;;;;;5.60;4.97;;;;;;;11.32;89.24;98424.72;4162444;28;20639;-82
2022/02/03 10:23:20;;;;;;;13.10;10.47;;;;;;;11.33;91.12;98432.47;4172152;28;20642;-81
2022/02/03 10:25:25;;;;;;;5.60;5.00;;;;;;;11.33;90.43;98427.25;4174223;28;20694;-82
2022/02/03 10:27:37;;;;;;;6.10;4.87;;;;;;;11.31;90.73;98407.41;4171053;28;20669;-83
2022/02/03 10:29:45;;;;;;;7.70;5.20;;;;;;;11.35;90.37;98411.47;4176336;28;20664;-82
2022/02/03 10:31:59;;;;;;;5.07;4.50;;;;;;;11.40;89.21;98406.81;4174515;28;20681;-83
2022/02/03 10:34:08;;;;;;;8.60;5.00;;;;;;;11.47;90.14;98413.31;4176879;28;20637;-82
2022/02/03 10:36:21;;;;;;;6.27;5.17;;;;;;;11.60;90.57;98403.72;4160581;28;20697;-82
2022/02/03 10:38:48;;;;;;;5.60;4.90;;;;;;;11.70;90.28;98407.38;4188425;28;20632;-82
2022/02/03 10:41:18;;;;;;;5.17;4.23;;;;;;;11.79;89.71;98394.53;4160593;28;20674;-82
2022/02/03 10:46:23;;;;;;;5.10;3.80;;;;;;;11.86;87.89;98374.88;4177385;28;20648;-82
2022/02/03 10:49:00;;;;;;;5.40;3.80;;;;;;;11.88;87.67;98363.38;4187964;28;21060;-82
2022/02/03 10:51:33;;;;;;;5.13;3.90;;;;;;;11.84;86.40;98351.44;4173102;28;21544;-82
2022/02/03 10:56:13;;;;;;;4.13;3.70;;;;;;;11.87;86.49;98322.50;4149814;28;20635;-82
2022/02/03 10:58:49;;;;;;;4.00;3.50;;;;;;;11.87;87.78;98312.03;4169475;28;20654;-82
2022/02/03 11:01:04;;;;;;;4.50;3.50;;;;;;;11.85;87.59;98310.50;4171001;28;20634;-82
2022/02/03 11:03:20;;;;;;;3.90;3.00;;;;;;;11.81;86.81;98309.03;4159989;28;20635;-82
2022/02/03 11:07:48;;;;;;;3.90;3.30;;;;;;;11.72;85.38;98299.22;4155375;28;20677;-82
2022/02/03 11:09:59;;;;;;;5.90;3.87;;;;;;;11.64;85.74;98283.25;4175309;28;20642;-83
2022/02/03 11:12:24;;;;;;;4.67;3.83;;;;;;;11.66;85.51;98272.69;4187578;28;20691;-83
2022/02/03 11:14:30;;;;;;;5.57;4.20;;;;;;;11.62;85.74;98272.06;4171982;28;20648;-82
2022/02/03 11:16:41;;;;;;;6.83;5.33;;;;;;;11.62;86.74;98276.44;4172080;28;20639;-82
2022/02/03 11:18:46;;;;;;;8.90;7.03;;;;;;;11.65;87.28;98279.69;4161757;28;20630;-82
2022/02/03 11:20:50;;;;;;;5.00;4.43;;;;;;;11.66;86.16;98278.72;4172790;28;20634;-83
2022/02/03 11:23:10;;;;;;;6.17;3.87;;;;;;;11.68;85.79;98273.41;4177434;28;20639;-83
2022/02/03 11:25:30;;;;;;;5.53;4.50;;;;;;;11.66;86.04;98252.59;4162754;28;20640;-82
2022/02/03 11:27:50;;;;;;;4.07;3.67;;;;;;;11.66;86.28;98264.84;4180511;28;20651;-82
2022/02/03 11:37:45;;;;;;;4.77;4.00;;;;;;;11.61;85.84;98249.50;4187188;28;20638;-82
2022/02/03 11:50:09;;;;;;;5.83;4.03;;;;;;;11.65;85.20;98213.53;4133884;28;20698;-82
2022/02/03 11:58:04;;;;;;;4.40;3.70;;;;;;;11.62;84.66;98200.69;4174763;28;21287;-82
2022/02/03 12:07:30;;;;;;;5.30;4.20;;;;;;;11.93;85.35;98183.53;4159461;28;20689;-82
2022/02/03 12:14:48;;;;;;;5.60;4.20;;;;;;;12.06;84.89;98152.13;4159416;28;21552;-83
2022/02/03 12:17:11;;;;;;;4.37;3.50;;;;;;;11.97;83.66;98164.09;4157005;28;20633;-82
2022/02/03 12:19:25;;;;;;;4.23;3.70;;;;;;;11.92;84.67;98160.97;4172836;28;20638;-82
2022/02/03 12:21:36;;;;;;;4.60;3.90;;;;;;;11.89;84.42;98166.44;4176297;28;20685;-81
2022/02/03 12:23:58;;;;;;;3.97;3.50;;;;;;;11.89;83.47;98162.97;4171615;28;20636;-83
2022/02/03 12:26:14;;;;;;;4.87;3.93;;;;;;;11.89;83.98;98157.72;4173011;28;20632;-84
2022/02/03 12:28:32;;;;;;;7.27;3.93;;;;;;;11.91;84.23;98148.03;4169388;28;20660;-84
2022/02/03 12:30:53;;;;;;;5.13;3.80;;;;;;;11.96;83.88;98159.78;4167886;28;20635;-84
2022/02/03 12:36:58;;;;;;;4.00;3.43;;;;;;;12.00;83.15;98174.31;4169357;28;20625;-84
2022/02/03 12:38:29;;;;;;;5.10;3.20;;;;;;;11.97;83.35;98163.25;4158457;28;20698;-84
2022/02/03 12:40:51;;;;;;;4.20;3.07;;;;;;;11.99;82.12;98156.97;4155672;28;20671;-85
2022/02/03 12:43:12;;;;;;;3.07;2.77;;;;;;;11.99;84.15;98141.28;4170890;28;20624;-85
2022/02/03 12:45:23;;;;;;;3.73;2.87;;;;;;;12.00;82.00;98142.94;4161151;28;20663;-84
2022/02/03 12:47:26;;;;;;;4.20;3.40;;;;;;;11.99;82.26;98140.44;4172787;28;20644;-84
2022/02/03 12:49:30;;;;;;;5.47;3.67;;;;;;;11.96;82.72;98136.28;4154056;28;20725;-84
2022/02/03 12:51:33;;;;;;;3.53;3.07;;;;;;;11.99;83.13;98130.00;4188214;28;20671;-84
2022/02/03 12:53:39;;;;;;;3.80;3.10;;;;;;;12.00;82.33;98118.59;4171880;28;20655;-85
2022/02/03 12:55:50;;;;;;;4.27;3.00;;;;;;;11.99;82.56;98119.53;4169119;28;20628;-84
2022/02/03 12:57:53;;;;;;;4.37;3.40;;;;;;;12.05;82.38;98112.06;4183201;28;21070;-83
2022/02/03 13:00:17;;;;;;;4.03;3.20;;;;;;;12.14;83.59;98102.72;4147729;28;21243;-84
2022/02/03 13:02:33;;;;;;;4.30;3.50;;;;;;;12.14;81.20;98100.94;4176075;28;20666;-84
2022/02/03 13:04:39;;;;;;;4.60;3.03;;;;;;;12.18;83.16;98094.53;4170045;28;20649;-84
2022/02/03 13:06:51;;;;;;;3.80;3.20;;;;;;;12.23;82.12;98093.22;4183568;28;20681;-84
2022/02/03 13:09:00;;;;;;;3.77;3.37;;;;;;;12.26;81.78;98106.06;4166073;28;20649;-84
2022/02/03 13:11:08;;;;;;;3.20;2.80;;;;;;;12.28;81.97;98101.59;4168215;28;20644;-84
2022/02/03 13:13:18;;;;;;;2.90;2.53;;;;;;;12.32;80.99;98096.94;4158536;28;20696;-84
2022/02/03 13:15:34;;;;;;;5.33;2.43;;;;;;;12.32;81.40;98079.47;4159310;28;20640;-84
2022/02/03 13:17:41;;;;;;;3.17;2.87;;;;;;;12.29;81.06;98066.63;4167300;28;20666;-84
2022/02/03 13:19:52;;;;;;;4.70;3.10;;;;;;;12.28;81.20;98069.34;4170633;28;20653;-84
2022/02/03 13:22:09;;;;;;;3.10;2.53;;;;;;;12.28;80.05;98069.34;4156842;28;20628;-84
2022/02/03 13:24:36;;;;;;;4.40;3.40;;;;;;;12.20;81.38;98074.34;4176465;28;20648;-84
2022/02/03 13:26:39;;;;;;;2.57;2.33;;;;;;;12.18;79.96;98073.63;4172221;28;20668;-84
2022/02/03 13:28:56;;;;;;;3.17;2.67;;;;;;;12.16;80.34;98070.28;4170820;28;20645;-85
2022/02/03 13:31:17;;;;;;;4.10;2.93;;;;;;;12.11;81.45;98067.19;4191106;28;21315;-85
2022/02/03 13:33:29;;;;;;;3.03;2.50;;;;;;;12.00;81.02;98054.09;4171635;28;21086;-84
2022/02/03 13:35:46;;;;;;;2.87;2.40;;;;;;;12.03;81.32;98048.63;4153383;28;20644;-84
2022/02/03 13:37:51;;;;;;;4.53;2.97;;;;;;;12.11;80.57;98054.09;4171211;28;20738;-85
2022/02/03 13:40:06;;;;;;;3.43;2.70;;;;;;;12.15;80.75;98039.88;4175804;28;20624;-84
2022/02/03 13:42:11;;;;;;;3.83;2.60;;;;;;;12.19;81.91;98038.66;4158239;28;20737;-85
2022/02/03 13:44:29;;;;;;;2.93;2.40;;;;;;;12.15;80.99;98036.41;4174322;28;20644;-84
2022/02/03 13:46:37;;;;;;;4.60;2.50;;;;;;;12.21;81.88;98038.56;4186827;28;20637;-84
2022/02/03 13:48:41;;;;;;;3.90;2.50;;;;;;;12.23;81.01;98021.81;4164770;28;20775;-85
2022/02/03 13:50:51;;;;;;;3.50;2.83;;;;;;;12.23;80.09;98028.84;4171136;28;20634;-85
2022/02/03 13:53:04;;;;;;;3.27;2.73;;;;;;;12.22;81.06;98033.22;4161994;28;20636;-85
2022/02/03 14:14:50;;;;;;;6.40;2.57;;;;;;;12.22;81.76;98011.47;4169640;28;20672;-83
2022/02/03 14:17:29;;;;;;;3.93;2.80;;;;;;;12.20;80.02;98011.59;4190580;28;20730;-82
2022/02/03 14:22:06;;;;;;;4.07;3.20;;;;;;;12.19;80.67;98011.69;4170103;28;21294;-83
2022/02/03 14:28:42;;;;;;;3.57;2.30;;;;;;;12.19;80.95;98003.84;4184193;28;20695;-84
2022/02/03 14:30:48;;;;;;;4.93;2.90;;;;;;;12.19;80.89;98009.09;4174291;28;21001;-84
2022/02/03 14:32:56;;;;;;;5.00;3.73;;;;;;;12.19;82.21;98012.53;4176454;28;20624;-84
2022/02/03 14:35:01;;;;;;;2.93;2.20;;;;;;;12.19;80.63;98012.53;4149198;28;20637;-84
2022/02/03 14:37:15;;;;;;;2.77;2.27;;;;;;;12.19;81.10;98011.69;4159241;28;20688;-84
2022/02/03 14:39:23;;;;;;;3.17;2.47;;;;;;;12.19;82.15;98009.91;4157100;28;20636;-83
2022/02/03 14:41:34;;;;;;;4.10;2.03;;;;;;;12.19;81.06;98009.09;4170519;28;20636;-83
2022/02/03 14:43:37;;;;;;;3.83;1.87;;;;;;;12.17;80.14;98011.81;4173801;28;21522;-84
2022/02/03 14:46:01;;;;;;;2.20;2.00;;;;;;;12.18;81.97;98003.03;4176420;28;20627;-84
2022/02/03 14:48:06;;;;;;;4.00;2.40;;;;;;;12.19;81.71;97985.56;4164970;28;20652;-84
2022/02/03 14:50:11;;;;;;;3.10;1.83;;;;;;;12.18;81.85;98003.03;4170334;28;20731;-83
2022/02/03 14:52:25;;;;;;;2.87;1.80;;;;;;;12.17;80.16;98003.16;4171801;28;20624;-84
2022/02/03 14:59:14;;;;;;;2.47;1.97;;;;;;;12.14;80.74;97992.91;4136945;28;20644;-83
2022/02/03 15:01:17;;;;;;;3.33;2.40;;;;;;;12.14;80.27;97975.44;4162480;28;22348;-84
2022/02/03 15:03:31;;;;;;;2.83;1.70;;;;;;;12.12;80.12;97969.50;4174961;28;20668;-84
2022/02/03 15:05:37;;;;;;;2.93;1.97;;;;;;;12.10;79.96;97963.53;4174639;28;20635;-84
2022/02/03 15:07:48;;;;;;;2.60;1.97;;;;;;;12.10;81.26;97987.06;4176442;28;20632;-83
2022/02/03 15:10:03;;;;;;;2.47;1.80;;;;;;;12.08;80.40;97972.47;4155264;28;20666;-84
2022/02/03 15:12:22;;;;;;;2.40;1.90;;;;;;;12.04;80.31;97956.19;4170101;28;21192;-84
2022/02/03 15:14:25;;;;;;;3.23;1.80;;;;;;;12.01;82.58;97969.50;4190558;28;20773;-83
2022/02/03 15:16:31;;;;;;;3.67;1.93;;;;;;;11.97;82.61;97968.06;4174124;28;21218;-84
2022/02/03 15:18:54;;;;;;;2.23;1.80;;;;;;;11.95;81.58;97962.13;4175525;28;20681;-84
2022/02/03 15:20:58;;;;;;;3.30;1.90;;;;;;;11.92;80.19;97959.75;4172018;28;21047;-84
2022/02/03 15:23:04;;;;;;;3.20;2.20;;;;;;;11.89;82.20;97962.59;4160076;28;20637;-83
2022/02/03 15:25:08;;;;;;;4.70;2.30;;;;;;;11.87;81.40;97967.06;4160562;28;20694;-83